Time;durP1;ratioP1;P1;durP2;ratioP2;P2;SDS_P1;SDS_P2;PMS_P1;PMS_P2;Temp;Humidity;BMP_temperature;BMP_pressure;BME280_temperature;BME280_humidity;BME280_pressure;Samples;Min_cycle;Max_cycle;Signal;HPM_P1;HPM_P2
2021/04/06 00:01:58;;;;;;;18.57;8.77;;;1.30;99.90;;;;;;3577562;39;20800;-75
2021/04/06 00:04:31;;;;;;;21.63;11.97;;;1.30;99.90;;;;;;3569648;40;20480;-75
2021/04/06 00:07:01;;;;;;;17.13;8.17;;;1.20;99.90;;;;;;3579184;39;20424;-75
2021/04/06 00:09:29;;;;;;;20.87;12.00;;;1.10;99.90;;;;;;3570161;40;20872;-75
2021/04/06 00:11:58;;;;;;;11.43;7.63;;;1.10;99.90;;;;;;3578226;39;20383;-76
2021/04/06 00:14:25;;;;;;;10.57;8.30;;;1.20;99.90;;;;;;3570941;40;20686;-75
2021/04/06 00:16:51;;;;;;;23.70;10.07;;;1.10;99.90;;;;;;3564229;39;21117;-75
2021/04/06 00:19:19;;;;;;;12.47;8.03;;;1.20;99.90;;;;;;3562158;40;20435;-74
2021/04/06 00:21:49;;;;;;;7.53;4.57;;;1.20;99.90;;;;;;3576849;39;20429;-75
2021/04/06 00:24:17;;;;;;;6.13;4.20;;;0.80;99.90;;;;;;3576618;39;20397;-75
2021/04/06 00:27:05;;;;;;;11.70;5.20;;;1.30;99.90;;;;;;3572013;40;20380;-74
2021/04/06 00:29:35;;;;;;;7.17;4.20;;;1.30;99.90;;;;;;3580070;39;20376;-74
2021/04/06 00:32:02;;;;;;;8.10;4.73;;;1.40;99.90;;;;;;3570736;40;20860;-75
2021/04/06 00:34:30;;;;;;;5.97;4.03;;;1.40;99.90;;;;;;3581170;39;20378;-75
2021/04/06 00:36:56;;;;;;;14.40;4.70;;;1.40;99.90;;;;;;3580697;39;20397;-74
2021/04/06 00:39:34;;;;;;;14.33;4.63;;;1.40;99.90;;;;;;3571276;40;20428;-74
2021/04/06 00:42:06;;;;;;;5.43;4.30;;;1.40;99.90;;;;;;3572760;39;20414;-75
2021/04/06 00:44:39;;;;;;;15.30;4.57;;;1.50;99.90;;;;;;3568477;39;20416;-75
2021/04/06 00:47:05;;;;;;;10.60;4.27;;;1.50;99.90;;;;;;3577472;39;20400;-75
2021/04/06 00:49:34;;;;;;;5.37;4.03;;;1.50;99.90;;;;;;3568823;40;20832;-75
2021/04/06 00:52:03;;;;;;;8.40;2.73;;;1.50;99.90;;;;;;3569495;40;20815;-75
2021/04/06 00:54:29;;;;;;;5.17;3.10;;;1.60;99.90;;;;;;3568029;40;20404;-74
2021/04/06 00:56:59;;;;;;;12.30;3.00;;;1.60;99.90;;;;;;3566463;39;20409;-75
2021/04/06 00:59:25;;;;;;;8.70;3.63;;;1.80;99.90;;;;;;3565609;40;20956;-74
2021/04/06 01:01:58;;;;;;;2.13;1.80;;;1.60;99.90;;;;;;3565253;40;20800;-75
2021/04/06 01:04:27;;;;;;;6.70;3.73;;;1.60;99.90;;;;;;3576602;40;20376;-75
2021/04/06 01:07:12;;;;;;;4.03;2.40;;;1.60;99.90;;;;;;3569109;40;20497;-76
2021/04/06 01:09:54;;;;;;;2.20;1.27;;;1.60;99.90;;;;;;3566776;40;20411;-75
2021/04/06 01:12:24;;;;;;;2.07;1.77;;;1.50;99.90;;;;;;3565935;40;20421;-76
2021/04/06 01:14:51;;;;;;;3.50;1.60;;;1.70;99.90;;;;;;3573100;39;21004;-75
2021/04/06 01:17:29;;;;;;;2.87;2.00;;;1.60;99.90;;;;;;3615436;22;20453;-73
2021/04/06 01:20:09;;;;;;;7.03;1.90;;;1.60;99.90;;;;;;3565144;40;20739;-74
2021/04/06 01:22:40;;;;;;;4.93;1.40;;;1.70;99.90;;;;;;3567482;40;21349;-74
2021/04/06 01:25:06;;;;;;;6.90;1.73;;;1.70;99.90;;;;;;3573097;40;20412;-74
2021/04/06 01:27:32;;;;;;;8.60;1.93;;;1.90;99.90;;;;;;3570034;40;20768;-74
2021/04/06 01:29:58;;;;;;;2.27;1.83;;;1.70;99.90;;;;;;3576601;40;20393;-74
2021/04/06 01:32:27;;;;;;;3.77;1.67;;;2.10;99.90;;;;;;3580762;40;20598;-73
2021/04/06 01:34:55;;;;;;;1.63;1.53;;;1.70;99.90;;;;;;3570926;40;20373;-73
2021/04/06 01:37:25;;;;;;;1.30;1.20;;;1.70;99.90;;;;;;3571212;40;20383;-73
2021/04/06 01:39:55;;;;;;;2.13;1.50;;;1.30;99.90;;;;;;3580401;40;20405;-74
2021/04/06 01:42:24;;;;;;;8.77;2.07;;;1.80;99.90;;;;;;3574514;40;20428;-74
2021/04/06 01:44:53;;;;;;;1.30;1.20;;;2.30;99.90;;;;;;3570149;40;21258;-73
2021/04/06 01:47:19;;;;;;;4.37;1.63;;;;;;;;;;3566573;40;20465;-75
2021/04/06 01:49:46;;;;;;;2.13;1.90;;;2.00;99.90;;;;;;3575035;40;20430;-75
2021/04/06 01:52:13;;;;;;;5.70;2.17;;;1.80;99.90;;;;;;3581866;40;20411;-76
2021/04/06 01:54:41;;;;;;;11.47;2.03;;;1.80;99.90;;;;;;3574786;40;20437;-75
2021/04/06 01:57:16;;;;;;;5.43;2.17;;;1.80;99.90;;;;;;3582694;40;20372;-74
2021/04/06 02:01:00;;;;;;;4.03;1.83;;;1.80;99.90;;;;;;3572568;40;20808;-73
2021/04/06 02:03:03;;;;;;;3.60;2.60;;;1.80;99.90;;;;;;3556230;40;20473;-74
2021/04/06 02:05:30;;;;;;;6.67;2.67;;;1.90;99.90;;;;;;3554616;40;20994;-74
2021/04/06 02:08:02;;;;;;;1.97;1.67;;;1.70;99.90;;;;;;3562021;40;20412;-75
2021/04/06 02:10:28;;;;;;;6.77;2.53;;;1.60;99.90;;;;;;3562495;40;20406;-75
2021/04/06 02:12:54;;;;;;;4.50;1.90;;;1.60;99.90;;;;;;3556696;40;20442;-75
2021/04/06 02:15:20;;;;;;;7.57;2.10;;;1.60;99.90;;;;;;3554459;40;20411;-75
2021/04/06 02:17:53;;;;;;;5.33;1.93;;;1.60;99.90;;;;;;3549873;40;20479;-74
2021/04/06 02:20:25;;;;;;;6.03;2.30;;;1.60;99.90;;;;;;3551247;40;20362;-75
2021/04/06 02:22:59;;;;;;;5.53;3.30;;;1.60;99.90;;;;;;3549960;40;20781;-75
2021/04/06 02:25:26;;;;;;;7.90;2.53;;;1.60;99.90;;;;;;3552502;40;20530;-75
2021/04/06 02:27:52;;;;;;;5.30;3.73;;;;;;;;;;3550583;40;20397;-75
2021/04/06 02:30:19;;;;;;;10.33;2.80;;;1.40;99.90;;;;;;3551383;40;20416;-75
2021/04/06 02:32:45;;;;;;;2.93;2.00;;;1.70;99.90;;;;;;3553979;40;20833;-75
2021/04/06 02:35:13;;;;;;;6.60;2.93;;;1.70;99.90;;;;;;3562839;40;20411;-75
2021/04/06 02:38:06;;;;;;;8.23;3.23;;;1.70;99.90;;;;;;3557219;40;20517;-75
2021/04/06 02:40:31;;;;;;;5.57;2.27;;;1.60;99.90;;;;;;3547502;40;20810;-75
2021/04/06 02:42:57;;;;;;;1.63;1.53;;;1.60;99.90;;;;;;3525900;40;20415;-76
2021/04/06 02:45:29;;;;;;;5.50;3.50;;;1.50;99.90;;;;;;3541885;40;20676;-75
2021/04/06 02:48:05;;;;;;;3.20;1.93;;;1.40;99.90;;;;;;3540086;40;20499;-75
2021/04/06 02:50:33;;;;;;;9.97;3.67;;;1.50;99.90;;;;;;3547709;40;21317;-75
2021/04/06 02:53:01;;;;;;;3.90;2.63;;;1.50;99.90;;;;;;3540318;40;20491;-74
2021/04/06 02:55:28;;;;;;;5.30;3.40;;;1.40;99.90;;;;;;3546859;40;20916;-74
2021/04/06 02:57:55;;;;;;;4.20;3.43;;;1.50;99.90;;;;;;3542193;40;20805;-75
2021/04/06 03:00:26;;;;;;;12.57;5.17;;;1.50;99.90;;;;;;3549106;40;20417;-74
2021/04/06 03:03:03;;;;;;;6.30;4.23;;;1.50;99.90;;;;;;3547182;40;20415;-74
2021/04/06 03:05:28;;;;;;;7.87;3.83;;;1.50;99.90;;;;;;3539959;40;20832;-74
2021/04/06 03:07:55;;;;;;;11.90;4.77;;;1.60;99.90;;;;;;3540864;40;20398;-74
2021/04/06 03:10:21;;;;;;;8.40;4.07;;;1.50;99.90;;;;;;3538720;40;20239;-75
2021/04/06 03:12:48;;;;;;;5.57;2.40;;;1.40;99.90;;;;;;3548632;40;20414;-77
2021/04/06 03:15:20;;;;;;;3.07;2.57;;;1.30;99.90;;;;;;3542763;40;20499;-74
2021/04/06 03:17:48;;;;;;;3.13;2.50;;;1.60;99.90;;;;;;3565985;39;21248;-74
2021/04/06 03:20:15;;;;;;;7.33;3.33;;;1.20;99.90;;;;;;3568578;40;20448;-74
2021/04/06 03:22:42;;;;;;;3.40;2.80;;;1.40;99.90;;;;;;3568557;40;20421;-75
2021/04/06 03:25:11;;;;;;;8.50;3.60;;;;;;;;;;3577850;40;20386;-75
2021/04/06 03:27:42;;;;;;;2.37;2.23;;;1.40;99.90;;;;;;3576780;40;20403;-74
2021/04/06 03:30:09;;;;;;;7.83;2.70;;;1.20;99.90;;;;;;3576832;39;20413;-75
2021/04/06 03:32:35;;;;;;;2.33;2.10;;;;;;;;;;3569465;40;20391;-75
2021/04/06 03:35:01;;;;;;;10.50;2.80;;;;;;;;;;3569301;40;20436;-74
2021/04/06 03:37:28;;;;;;;2.30;2.10;;;1.10;99.90;;;;;;3567963;40;20389;-75
2021/04/06 03:39:55;;;;;;;2.20;2.00;;;;;;;;;;3576944;40;21485;-74
2021/04/06 03:42:28;;;;;;;2.13;2.03;;;1.30;99.90;;;;;;3579100;39;20408;-75
2021/04/06 03:45:08;;;;;;;11.13;3.13;;;1.30;99.90;;;;;;3576784;40;20849;-74
2021/04/06 03:47:52;;;;;;;3.07;2.00;;;1.30;99.90;;;;;;3577912;40;20412;-74
2021/04/06 03:50:40;;;;;;;7.00;3.83;;;1.30;99.90;;;;;;3568033;40;20523;-75
2021/04/06 03:53:08;;;;;;;4.47;2.63;;;1.30;99.90;;;;;;3566801;40;20431;-74
2021/04/06 03:55:35;;;;;;;9.50;2.47;;;1.30;99.90;;;;;;3576862;40;20424;-75
2021/04/06 03:58:10;;;;;;;11.23;3.80;;;1.30;99.90;;;;;;3576183;40;20443;-75
2021/04/06 04:00:37;;;;;;;4.40;2.83;;;;;;;;;;3577130;39;20485;-75
2021/04/06 04:03:03;;;;;;;2.50;1.80;;;;;;;;;;3566557;40;20413;-75
2021/04/06 04:05:29;;;;;;;7.43;1.90;;;;;;;;;;3571918;40;20379;-75
2021/04/06 04:07:56;;;;;;;9.07;3.40;;;;;;;;;;3576566;40;20720;-74
2021/04/06 04:10:23;;;;;;;4.20;1.80;;;;;;;;;;3577028;40;20797;-75
2021/04/06 04:12:49;;;;;;;3.60;2.50;;;;;;;;;;3578038;40;20445;-74
2021/04/06 04:15:15;;;;;;;4.87;2.30;;;;;;;;;;3568980;40;20460;-74
2021/04/06 04:17:41;;;;;;;1.63;1.53;;;;;;;;;;3569035;40;20519;-75
2021/04/06 04:20:09;;;;;;;3.30;1.93;;;0.80;99.90;;;;;;3576262;39;20431;-74
2021/04/06 04:22:35;;;;;;;4.20;2.53;;;;;;;;;;3577536;40;20409;-75
2021/04/06 04:25:03;;;;;;;3.03;1.70;;;0.70;99.90;;;;;;3578481;40;20650;-74
2021/04/06 04:27:29;;;;;;;2.30;1.50;;;;;;;;;;3568817;40;20403;-74
2021/04/06 04:29:55;;;;;;;3.40;2.00;;;0.50;99.90;;;;;;3564120;40;20408;-75
2021/04/06 04:32:21;;;;;;;4.30;1.40;;;;;;;;;;3577242;39;20408;-75
2021/04/06 04:34:47;;;;;;;2.10;1.90;;;0.60;99.90;;;;;;3569277;40;20260;-75
2021/04/06 04:37:13;;;;;;;2.33;1.90;;;;;;;;;;3578075;40;20412;-75
2021/04/06 04:39:39;;;;;;;5.83;2.53;;;1.00;99.90;;;;;;3576070;40;20421;-75
2021/04/06 04:42:05;;;;;;;4.03;2.23;;;;;;;;;;3572462;40;20942;-75
2021/04/06 04:44:31;;;;;;;2.77;1.77;;;0.60;99.90;;;;;;3579577;40;20217;-75
2021/04/06 04:46:57;;;;;;;9.83;3.10;;;0.70;99.90;;;;;;3562793;40;20860;-75
2021/04/06 04:49:23;;;;;;;1.80;1.70;;;0.70;99.90;;;;;;3572906;40;20399;-75
2021/04/06 04:51:48;;;;;;;7.53;2.90;;;0.70;99.90;;;;;;3559762;40;20247;-75
2021/04/06 04:54:14;;;;;;;6.83;1.93;;;0.70;99.90;;;;;;3572745;40;20287;-75
2021/04/06 04:56:40;;;;;;;1.90;1.67;;;;;;;;;;3570443;40;20521;-75
2021/04/06 04:59:06;;;;;;;13.13;3.30;;;0.70;99.90;;;;;;3567186;40;20282;-75
2021/04/06 05:01:34;;;;;;;10.07;2.70;;;0.70;99.90;;;;;;3568504;40;20433;-75
2021/04/06 05:03:59;;;;;;;6.60;2.60;;;0.50;99.90;;;;;;3572961;40;20383;-75
2021/04/06 05:06:25;;;;;;;11.00;2.53;;;;;;;;;;3579809;40;20946;-75
2021/04/06 05:08:51;;;;;;;4.33;1.70;;;0.60;99.90;;;;;;3576256;40;20645;-75
2021/04/06 05:11:17;;;;;;;2.00;1.90;;;;;;;;;;3577740;39;20448;-75
2021/04/06 05:13:43;;;;;;;4.93;2.50;;;;;;;;;;3569592;40;20249;-75
2021/04/06 05:16:09;;;;;;;5.40;2.10;;;;;;;;;;3575385;40;20793;-75
2021/04/06 05:18:35;;;;;;;2.67;2.23;;;;;;;;;;3578057;39;20427;-75
2021/04/06 05:21:01;;;;;;;4.83;3.67;;;0.70;99.90;;;;;;3568539;40;20395;-75
2021/04/06 05:23:27;;;;;;;6.40;2.70;;;;;;;;;;3577174;40;20432;-75
2021/04/06 05:25:54;;;;;;;6.97;2.60;;;0.60;99.90;;;;;;3571345;40;20296;-75
2021/04/06 05:28:20;;;;;;;4.63;3.00;;;0.60;99.90;;;;;;3578608;39;20438;-75
2021/04/06 05:30:46;;;;;;;5.50;2.40;;;0.50;99.90;;;;;;3578206;40;20404;-76
2021/04/06 05:33:12;;;;;;;5.23;2.67;;;;;;;;;;3570382;40;20420;-75
2021/04/06 05:35:38;;;;;;;2.10;1.90;;;;;;;;;;3578427;40;20234;-75
2021/04/06 05:38:04;;;;;;;3.70;2.07;;;0.60;99.90;;;;;;3578156;39;20399;-75
2021/04/06 05:40:30;;;;;;;7.70;3.13;;;;;;;;;;3576323;39;20417;-75
2021/04/06 05:42:58;;;;;;;9.43;2.60;;;0.30;99.90;;;;;;3578265;40;20218;-75
2021/04/06 05:45:25;;;;;;;5.80;2.43;;;0.70;99.90;;;;;;3571853;40;20423;-76
2021/04/06 05:47:53;;;;;;;2.97;1.97;;;0.80;99.90;;;;;;3558254;40;20417;-75
2021/04/06 05:50:19;;;;;;;8.60;3.93;;;;;;;;;;3575895;40;20438;-77
2021/04/06 05:52:45;;;;;;;8.00;3.70;;;0.70;99.90;;;;;;3577841;39;20424;-76
2021/04/06 05:55:11;;;;;;;6.33;3.17;;;0.60;99.90;;;;;;3576052;39;20464;-76
2021/04/06 05:57:38;;;;;;;5.37;2.70;;;0.50;99.90;;;;;;3574700;40;20237;-76
2021/04/06 06:00:09;;;;;;;3.10;2.83;;;0.70;99.90;;;;;;3560070;40;20417;-76
2021/04/06 06:02:36;;;;;;;10.47;3.63;;;0.60;99.90;;;;;;3560368;40;20407;-76
2021/04/06 06:05:03;;;;;;;5.60;3.77;;;0.90;99.90;;;;;;3576988;40;20402;-75
2021/04/06 06:07:55;;;;;;;6.90;3.03;;;0.70;99.90;;;;;;3572015;40;20532;-75
2021/04/06 06:10:30;;;;;;;5.63;4.10;;;1.00;99.90;;;;;;3521588;40;20396;-75
2021/04/06 06:13:13;;;;;;;6.23;3.97;;;1.30;99.90;;;;;;3518939;40;21130;-76
2021/04/06 06:15:39;;;;;;;9.30;4.10;;;;;;;;;;3519399;40;21283;-75
2021/04/06 06:18:06;;;;;;;9.50;4.97;;;1.30;99.90;;;;;;3513251;40;20408;-75
2021/04/06 06:20:36;;;;;;;9.67;4.07;;;1.30;99.90;;;;;;3517427;40;20436;-77
2021/04/06 06:23:20;;;;;;;8.60;3.17;;;2.10;99.90;;;;;;3517682;40;20423;-74
2021/04/06 06:26:06;;;;;;;5.80;2.57;;;1.50;99.90;;;;;;3527172;40;20544;-75
2021/04/06 06:28:33;;;;;;;6.40;4.43;;;1.60;99.90;;;;;;3519817;40;20432;-75
2021/04/06 06:31:00;;;;;;;11.80;6.50;;;;;;;;;;3528715;40;20415;-74
2021/04/06 06:33:32;;;;;;;3.63;3.30;;;1.20;99.90;;;;;;3522464;40;20391;-74
2021/04/06 06:36:09;;;;;;;8.50;3.73;;;1.30;99.90;;;;;;3528829;40;20391;-75
2021/04/06 06:38:36;;;;;;;5.67;3.67;;;1.20;99.90;;;;;;3521234;40;20406;-75
2021/04/06 06:41:11;;;;;;;5.17;3.53;;;1.10;99.90;;;;;;3516491;40;20400;-74
2021/04/06 06:43:42;;;;;;;7.10;4.23;;;1.30;99.90;;;;;;3518890;40;20395;-74
2021/04/06 06:46:40;;;;;;;9.13;4.43;;;1.50;99.90;;;;;;3524688;40;20878;-75
2021/04/06 06:49:08;;;;;;;6.13;4.20;;;;;;;;;;3537871;40;20431;-75
2021/04/06 06:51:40;;;;;;;5.27;3.57;;;2.10;99.90;;;;;;3566030;40;20814;-75
2021/04/06 06:54:06;;;;;;;3.97;3.60;;;2.40;99.90;;;;;;3555978;40;20389;-75
2021/04/06 06:56:42;;;;;;;7.47;4.10;;;2.00;99.90;;;;;;3555769;40;20384;-75
2021/04/06 06:59:09;;;;;;;7.43;3.37;;;2.00;99.90;;;;;;3563280;40;20803;-74
2021/04/06 07:01:37;;;;;;;7.43;4.83;;;0.90;99.90;;;;;;3557228;40;20956;-74
2021/04/06 07:04:12;;;;;;;8.40;5.03;;;1.50;99.90;;;;;;3555734;40;20490;-75
2021/04/06 07:06:43;;;;;;;3.30;3.00;;;1.40;99.90;;;;;;3565258;40;20395;-74
2021/04/06 07:09:25;;;;;;;5.20;3.20;;;1.50;99.90;;;;;;3567168;40;20406;-74
2021/04/06 07:11:58;;;;;;;8.97;4.80;;;1.40;99.90;;;;;;3547839;40;21253;-75
2021/04/06 07:14:24;;;;;;;4.77;3.40;;;1.30;99.90;;;;;;3549005;40;20731;-76
2021/04/06 07:16:55;;;;;;;5.83;3.50;;;1.30;99.90;;;;;;3565172;40;20794;-76
2021/04/06 07:19:21;;;;;;;14.87;4.93;;;1.30;99.90;;;;;;3564323;40;20435;-75
2021/04/06 07:21:52;;;;;;;9.97;4.50;;;1.40;99.90;;;;;;3565148;40;21103;-75
2021/04/06 07:24:28;;;;;;;8.43;4.57;;;1.20;99.90;;;;;;3558264;40;21036;-75
2021/04/06 07:26:56;;;;;;;9.50;5.50;;;1.20;99.90;;;;;;3567157;40;20428;-75
2021/04/06 07:29:23;;;;;;;7.97;6.07;;;0.60;99.90;;;;;;3575822;40;20453;-75
2021/04/06 07:31:50;;;;;;;4.90;4.17;;;1.30;99.90;;;;;;3569527;40;20475;-75
2021/04/06 07:34:19;;;;;;;10.53;7.33;;;1.50;99.90;;;;;;3570691;40;20861;-75
2021/04/06 07:36:45;;;;;;;5.37;3.50;;;1.50;99.90;;;;;;3565452;39;20412;-76
2021/04/06 07:39:14;;;;;;;13.63;5.80;;;2.20;99.90;;;;;;3558313;39;20489;-76
2021/04/06 07:41:42;;;;;;;9.87;6.43;;;2.50;99.90;;;;;;3567577;40;20414;-75
2021/04/06 07:44:10;;;;;;;15.80;7.50;;;3.40;99.90;;;;;;3571812;39;20426;-76
2021/04/06 07:46:35;;;;;;;11.83;5.17;;;3.00;99.90;;;;;;3561436;40;20427;-74
2021/04/06 07:49:11;;;;;;;17.57;6.90;;;3.20;99.90;;;;;;3555431;39;20485;-74
2021/04/06 07:52:13;;;;;;;11.93;6.80;;;3.00;99.90;;;;;;3570778;39;20253;-73
2021/04/06 07:54:40;;;;;;;27.47;5.17;;;2.90;99.90;;;;;;3558877;40;20402;-73
2021/04/06 07:57:06;;;;;;;17.00;7.00;;;3.10;99.90;;;;;;3562601;39;20410;-73
2021/04/06 07:59:32;;;;;;;17.63;9.83;;;2.70;99.90;;;;;;3568758;39;20696;-73
2021/04/06 08:02:03;;;;;;;13.10;8.90;;;3.30;99.90;;;;;;3573627;39;20457;-74
2021/04/06 08:04:45;;;;;;;15.17;8.77;;;3.50;99.90;;;;;;3572833;39;20226;-75
2021/04/06 08:07:20;;;;;;;13.63;7.77;;;3.90;99.90;;;;;;3572212;39;20489;-74
2021/04/06 08:10:21;;;;;;;12.40;8.17;;;4.00;99.90;;;;;;3574389;39;20400;-74
2021/04/06 08:12:48;;;;;;;10.87;6.47;;;4.40;99.90;;;;;;3568692;39;20403;-75
2021/04/06 08:15:16;;;;;;;12.57;7.30;;;3.50;99.90;;;;;;3569330;40;20687;-74
2021/04/06 08:17:53;;;;;;;16.23;9.87;;;3.10;99.90;;;;;;3570357;40;20738;-74
2021/04/06 08:20:25;;;;;;;16.50;8.87;;;3.60;99.90;;;;;;3572399;39;20423;-74
2021/04/06 08:23:22;;;;;;;10.70;7.43;;;3.50;99.90;;;;;;3574712;40;20650;-74
2021/04/06 08:25:50;;;;;;;9.13;6.93;;;3.60;99.90;;;;;;3529179;40;20491;-74
2021/04/06 08:28:29;;;;;;;14.27;8.40;;;4.00;99.90;;;;;;3513810;40;20409;-73
2021/04/06 08:31:19;;;;;;;19.80;6.57;;;4.40;99.90;;;;;;3518346;40;20775;-74
2021/04/06 08:33:44;;;;;;;10.70;6.50;;;4.00;99.90;;;;;;3521857;40;20411;-74
2021/04/06 08:36:10;;;;;;;10.43;4.93;;;3.80;99.90;;;;;;3515488;40;20917;-74
2021/04/06 08:38:39;;;;;;;9.80;6.00;;;3.80;99.90;;;;;;3509222;40;20431;-74
2021/04/06 08:41:06;;;;;;;12.23;4.47;;;4.50;99.90;;;;;;3510808;40;20467;-74
2021/04/06 08:43:34;;;;;;;8.23;4.70;;;4.00;99.90;;;;;;3523849;40;20465;-74
2021/04/06 08:46:15;;;;;;;8.40;6.20;;;4.00;99.90;;;;;;3516280;40;20399;-74
2021/04/06 08:48:51;;;;;;;7.80;5.70;;;4.00;99.90;;;;;;3525225;40;20493;-75
2021/04/06 08:51:30;;;;;;;4.93;4.50;;;4.00;99.90;;;;;;3527937;40;20448;-73
2021/04/06 08:53:58;;;;;;;6.90;3.70;;;3.90;99.90;;;;;;3528079;40;20387;-73
2021/04/06 08:56:34;;;;;;;11.50;5.43;;;3.70;99.90;;;;;;3526152;40;20524;-74
2021/04/06 08:59:32;;;;;;;3.43;3.10;;;4.10;99.90;;;;;;3517378;40;20390;-74
2021/04/06 09:02:14;;;;;;;3.10;2.30;;;4.30;99.90;;;;;;3528305;39;20491;-74
2021/04/06 09:04:51;;;;;;;10.30;3.03;;;3.30;99.90;;;;;;3574364;39;20803;-74
2021/04/06 09:07:19;;;;;;;3.03;2.07;;;3.00;99.90;;;;;;3578131;40;20363;-74
2021/04/06 09:09:46;;;;;;;9.03;3.30;;;2.90;99.90;;;;;;3560922;39;20383;-74
2021/04/06 09:12:12;;;;;;;4.23;2.60;;;3.00;99.90;;;;;;3556700;40;20414;-74
2021/04/06 09:14:39;;;;;;;5.73;2.40;;;3.00;99.90;;;;;;3565579;39;20415;-74
2021/04/06 09:17:05;;;;;;;2.63;2.43;;;3.10;99.90;;;;;;3570526;39;20417;-74
2021/04/06 09:19:34;;;;;;;7.17;3.10;;;3.70;99.90;;;;;;3568277;39;20428;-74
2021/04/06 09:22:03;;;;;;;7.63;2.60;;;4.70;99.90;;;;;;3571022;39;20417;-74
2021/04/06 09:24:30;;;;;;;10.80;3.13;;;4.80;99.90;;;;;;3570608;39;20420;-75
2021/04/06 09:26:57;;;;;;;4.63;2.17;;;5.60;99.90;;;;;;3575161;39;20375;-75
2021/04/06 09:29:29;;;;;;;4.93;2.53;;;5.30;99.90;;;;;;3563702;40;20435;-75
2021/04/06 09:31:56;;;;;;;3.33;1.47;;;6.20;99.90;;;;;;3561181;40;20449;-75
2021/04/06 09:34:34;;;;;;;3.43;2.33;;;4.90;99.90;;;;;;3551756;39;21420;-75
2021/04/06 09:37:03;;;;;;;2.90;1.77;;;5.50;99.90;;;;;;3569468;40;20437;-75
2021/04/06 09:39:30;;;;;;;7.03;2.17;;;5.30;1.00;;;;;;3569842;39;20400;-75
2021/04/06 09:41:56;;;;;;;2.23;2.03;;;4.80;99.90;;;;;;3564031;40;20487;-75
2021/04/06 09:44:25;;;;;;;2.00;1.50;;;5.60;99.90;;;;;;3559488;40;20379;-75
2021/04/06 09:46:57;;;;;;;3.23;1.97;;;5.80;99.90;;;;;;3563213;40;20376;-75
2021/04/06 09:49:33;;;;;;;13.10;2.33;;;5.30;99.90;;;;;;3568560;39;20399;-75
2021/04/06 09:52:02;;;;;;;6.33;1.73;;;5.30;99.90;;;;;;3576180;40;20419;-75
2021/04/06 09:54:32;;;;;;;5.70;2.67;;;5.30;99.90;;;;;;3567521;40;20467;-75
2021/04/06 09:57:00;;;;;;;4.47;2.33;;;5.30;99.90;;;;;;3578199;40;20394;-75
2021/04/06 09:59:27;;;;;;;3.63;1.87;;;6.40;99.90;;;;;;3576430;40;20399;-75
2021/04/06 10:01:55;;;;;;;6.70;2.30;;;6.50;99.90;;;;;;3576015;40;21173;-75
2021/04/06 10:04:39;;;;;;;4.23;2.10;;;6.10;99.90;;;;;;3574911;40;20420;-77
2021/04/06 10:07:14;;;;;;;4.17;1.90;;;5.20;99.90;;;;;;3566747;40;20771;-75
2021/04/06 10:09:42;;;;;;;8.47;2.00;;;4.80;1.00;;;;;;3566536;40;20535;-75
2021/04/06 10:12:10;;;;;;;5.33;1.80;;;4.50;1.00;;;;;;3559381;40;20723;-75
2021/04/06 10:14:36;;;;;;;4.10;3.23;;;;;;;;;;3576591;40;20422;-75
2021/04/06 10:17:12;;;;;;;59.13;39.77;;;5.80;99.90;;;;;;3571067;39;20479;-75
2021/04/06 10:19:40;;;;;;;1.20;1.10;;;5.90;1.00;;;;;;3575029;39;20521;-75
2021/04/06 10:22:15;;;;;;;5.23;2.60;;;6.00;1.00;;;;;;3574165;40;20560;-75
2021/04/06 10:24:42;;;;;;;3.50;2.50;;;6.40;99.90;;;;;;3566814;39;20731;-75
2021/04/06 10:27:22;;;;;;;3.70;2.23;;;6.50;99.90;;;;;;3568694;40;20467;-75
2021/04/06 10:29:54;;;;;;;6.67;2.60;;;6.30;1.00;;;;;;3576467;39;20502;-75
2021/04/06 10:32:24;;;;;;;4.00;2.07;;;6.00;1.00;;;;;;3567900;40;21077;-75
2021/04/06 10:34:59;;;;;;;7.80;1.60;;;5.70;1.00;;;;;;3560650;39;20473;-75
2021/04/06 10:37:37;;;;;;;4.43;1.50;;;6.30;99.90;;;;;;3573468;39;20420;-75
2021/04/06 10:40:19;;;;;;;7.97;1.43;;;6.60;1.00;;;;;;3557646;40;20486;-75
2021/04/06 10:42:45;;;;;;;3.67;1.97;;;6.60;1.00;;;;;;3572988;39;20481;-76
2021/04/06 10:45:12;;;;;;;1.70;1.30;;;5.90;99.90;;;;;;3567072;40;20480;-75
2021/04/06 10:47:38;;;;;;;1.20;1.10;;;5.40;1.00;;;;;;3572923;39;20455;-75
2021/04/06 10:50:05;;;;;;;2.77;1.50;;;5.30;99.90;;;;;;3575132;39;20387;-75
2021/04/06 10:52:32;;;;;;;4.27;2.17;;;5.90;1.00;;;;;;3575646;40;20241;-75
2021/04/06 10:54:59;;;;;;;1.57;1.30;;;5.90;99.90;;;;;;3567209;40;20437;-75
2021/04/06 10:57:28;;;;;;;3.60;2.00;;;5.00;1.00;;;;;;3577152;40;20461;-75
2021/04/06 10:59:53;;;;;;;2.80;2.00;;;4.80;99.90;;;;;;3565943;40;20424;-75
2021/04/06 11:02:21;;;;;;;3.00;1.53;;;6.00;99.90;;;;;;3575141;40;20835;-75
2021/04/06 11:04:47;;;;;;;6.60;1.63;;;6.30;1.00;;;;;;3567741;40;20229;-75
2021/04/06 11:07:13;;;;;;;1.53;1.43;;;6.50;1.00;;;;;;3574597;39;20684;-75
2021/04/06 11:09:45;;;;;;;2.63;2.00;;;7.10;99.90;;;;;;3575849;40;20444;-75
2021/04/06 11:12:14;;;;;;;5.13;1.90;;;7.60;1.00;;;;;;3564888;40;20822;-75
2021/04/06 11:14:41;;;;;;;2.17;1.10;;;7.70;1.00;;;;;;3566552;40;20433;-73
2021/04/06 11:17:08;;;;;;;1.70;1.50;;;7.30;1.00;;;;;;3567431;40;20465;-76
2021/04/06 11:19:39;;;;;;;4.50;1.83;;;7.80;1.00;;;;;;3577210;40;20607;-75
2021/04/06 11:22:08;;;;;;;6.23;3.10;;;7.70;1.00;;;;;;3575433;40;20722;-75
2021/04/06 11:24:35;;;;;;;4.33;1.93;;;7.50;1.00;;;;;;3567040;40;20444;-75
2021/04/06 11:27:03;;;;;;;3.27;2.37;;;7.30;1.00;;;;;;3568057;40;20409;-75
2021/04/06 11:29:31;;;;;;;2.90;2.13;;;6.70;1.00;;;;;;3577024;40;20432;-75
2021/04/06 11:32:00;;;;;;;3.23;2.77;;;6.00;1.00;;;;;;3576847;40;20435;-75
2021/04/06 11:34:27;;;;;;;4.43;2.00;;;6.30;1.00;;;;;;3570916;40;20539;-75
2021/04/06 11:36:54;;;;;;;3.23;2.03;;;7.70;1.00;;;;;;3574289;40;20390;-75
2021/04/06 11:39:23;;;;;;;2.67;1.23;;;7.90;99.90;;;;;;3566961;40;20434;-74
2021/04/06 11:41:49;;;;;;;5.10;1.73;;;7.90;99.90;;;;;;3576051;40;20422;-75
2021/04/06 11:44:16;;;;;;;2.80;1.90;;;7.90;99.90;;;;;;3575138;39;20433;-74
2021/04/06 11:46:42;;;;;;;1.53;1.23;;;7.40;99.90;;;;;;3567864;40;20893;-74
2021/04/06 11:49:10;;;;;;;2.40;2.20;;;6.60;99.90;;;;;;3575725;40;20422;-74
2021/04/06 11:51:37;;;;;;;4.10;3.70;;;5.70;1.00;;;;;;3573841;39;20717;-74
2021/04/06 11:54:05;;;;;;;1.87;1.63;;;5.60;99.90;;;;;;3565415;39;20413;-75
2021/04/06 11:56:31;;;;;;;3.20;2.10;;;5.40;99.90;;;;;;3572133;39;20444;-75
2021/04/06 11:58:57;;;;;;;1.60;1.50;;;3.70;99.90;;;;;;3575751;39;20441;-75
2021/04/06 12:01:22;;;;;;;4.60;2.60;;;2.80;99.90;;;;;;3573883;40;20412;-75
2021/04/06 12:03:48;;;;;;;3.60;2.40;;;2.40;99.90;;;;;;3562797;40;20825;-76
2021/04/06 12:06:14;;;;;;;5.07;2.80;;;2.40;99.90;;;;;;3567805;40;20218;-75
2021/04/06 12:08:41;;;;;;;5.33;2.50;;;2.90;99.90;;;;;;3567810;40;20245;-75
2021/04/06 12:11:11;;;;;;;5.30;2.17;;;3.00;99.90;;;;;;3576432;40;20623;-75
2021/04/06 12:13:37;;;;;;;3.80;3.27;;;3.50;99.90;;;;;;3575000;39;20584;-75
2021/04/06 12:16:05;;;;;;;2.47;2.27;;;3.50;99.90;;;;;;3572460;39;20404;-75
2021/04/06 12:18:31;;;;;;;2.50;2.30;;;4.00;99.90;;;;;;3565168;40;20471;-75
2021/04/06 12:20:57;;;;;;;2.43;2.23;;;4.50;99.90;;;;;;3577218;40;20482;-75
2021/04/06 12:23:23;;;;;;;3.90;2.90;;;5.10;99.90;;;;;;3566518;40;20476;-75
2021/04/06 12:25:49;;;;;;;6.90;3.40;;;5.00;99.90;;;;;;3565404;40;20242;-75
2021/04/06 12:28:15;;;;;;;4.20;2.97;;;5.00;99.90;;;;;;3570722;40;20413;-75
2021/04/06 12:30:41;;;;;;;2.40;2.20;;;5.10;99.90;;;;;;3570398;39;20262;-75
2021/04/06 12:33:08;;;;;;;3.00;2.80;;;5.00;99.90;;;;;;3571788;40;20513;-75
2021/04/06 12:35:33;;;;;;;4.90;3.30;;;5.80;99.90;;;;;;3576708;40;20404;-75
2021/04/06 12:37:59;;;;;;;4.97;3.20;;;6.10;99.90;;;;;;3565311;40;20658;-75
2021/04/06 12:40:28;;;;;;;3.87;3.47;;;5.50;99.90;;;;;;3573891;40;20230;-75
2021/04/06 12:42:54;;;;;;;3.73;2.53;;;;;;;;;;3559404;40;20289;-75
2021/04/06 12:45:19;;;;;;;2.30;1.80;;;5.30;56.70;;;;;;3566685;40;20400;-75
2021/04/06 12:47:45;;;;;;;2.70;2.40;;;5.50;99.90;;;;;;3567716;40;20696;-76
2021/04/06 12:50:12;;;;;;;1.37;1.27;;;5.00;94.00;;;;;;3570745;40;20552;-75
2021/04/06 12:52:38;;;;;;;2.00;1.80;;;4.70;88.40;;;;;;3567534;39;20238;-75
2021/04/06 12:55:04;;;;;;;2.53;1.70;;;5.50;74.70;;;;;;3576381;40;20448;-75
2021/04/06 12:57:30;;;;;;;3.10;2.60;;;5.30;1.00;;;;;;3565719;40;20289;-75
2021/04/06 12:59:57;;;;;;;1.90;1.80;;;4.70;1.00;;;;;;3574922;40;20900;-75
2021/04/06 13:02:24;;;;;;;2.70;2.20;;;4.80;77.80;;;;;;3575363;40;20492;-75
2021/04/06 13:04:50;;;;;;;2.50;2.30;;;4.80;40.10;;;;;;3562701;40;20753;-75
2021/04/06 13:07:16;;;;;;;8.00;5.13;;;4.90;81.30;;;;;;3566995;40;20404;-75
2021/04/06 13:09:43;;;;;;;4.93;4.50;;;4.50;99.90;;;;;;3575597;40;20781;-75
2021/04/06 13:12:09;;;;;;;4.73;4.30;;;4.20;99.90;;;;;;3557691;40;20437;-74
2021/04/06 13:14:35;;;;;;;4.20;3.70;;;4.70;99.90;;;;;;3575263;40;20382;-76
2021/04/06 13:17:01;;;;;;;4.60;4.00;;;5.70;1.00;;;;;;3574294;40;22403;-74
2021/04/06 13:19:26;;;;;;;7.10;4.13;;;5.70;1.00;;;;;;3565329;40;20739;-74
2021/04/06 13:21:53;;;;;;;4.70;2.40;;;6.00;1.00;;;;;;3557437;40;20444;-77